FKJ weather

Fukui Airport
Fukui Prefecture, Japan

Public forecast

Using degrees Celsius for public forecast. Weather courtesy of forecast.io.

METAR (pilot weather report)

Closest report is Komatsu Airport, 17.5 nm (32.5 km) NNE. Retrieved 2019/07/17 04:00 UTC (25 minutes ago):

RJNK 170400Z 34009KT 310V010 9999 FEW020 SCT170 26/21 Q1012

TAF (pilot weather forecast)

Forecast is more than 12 hours old.

Closest forecast is Komatsu Airport, 17.5 nm (32.5 km) NNE. Retrieved 2019/07/16 00:00 UTC (1 day ago):

TAF RJNK 162308Z 1700/1806 35008KT 9999 FEW020 SCT040 BECMG 1712/1715 15004KT TEMPO 1803/1806 3000 SHRA BR FEW003 BKN005